createdAt,value
2022-09-03T00:02:02.443Z,14.60
2022-09-03T00:05:13.841Z,14.50
2022-09-03T00:08:12.746Z,14.40
2022-09-03T00:11:33.182Z,14.40
2022-09-03T00:14:34.332Z,14.40
2022-09-03T00:17:34.697Z,14.40
2022-09-03T00:20:43.330Z,14.40
2022-09-03T00:23:40.260Z,14.30
2022-09-03T00:26:35.870Z,14.30
2022-09-03T00:29:43.636Z,14.30
2022-09-03T00:32:47.390Z,14.20
2022-09-03T00:36:21.034Z,14.30
2022-09-03T00:39:22.198Z,14.30
2022-09-03T00:42:23.692Z,14.20
2022-09-03T00:45:33.979Z,14.10
2022-09-03T00:48:37.283Z,14.10
2022-09-03T00:51:56.446Z,14.10
2022-09-03T00:55:13.044Z,14.10
2022-09-03T00:58:20.737Z,14.10
2022-09-03T01:01:20.416Z,14.10
2022-09-03T01:04:22.326Z,14.00
2022-09-03T01:07:33.890Z,14.00
2022-09-03T01:10:49.172Z,13.90
2022-09-03T01:14:02.624Z,13.90
2022-09-03T01:17:05.313Z,13.90
2022-09-03T01:20:24.048Z,13.90
2022-09-03T01:23:26.766Z,13.90
2022-09-03T01:26:42.197Z,13.90
2022-09-03T01:29:56.241Z,13.90
2022-09-03T01:33:14.853Z,13.90
2022-09-03T01:36:35.716Z,13.90
2022-09-03T01:39:36.925Z,13.90
2022-09-03T01:43:17.283Z,13.90
2022-09-03T01:46:18.973Z,13.90
2022-09-03T01:49:23.176Z,13.80
2022-09-03T01:52:29.742Z,13.60
2022-09-03T01:55:48.014Z,13.60
2022-09-03T01:58:46.308Z,13.50
2022-09-03T02:01:46.637Z,13.50
2022-09-03T02:04:38.881Z,13.50
2022-09-03T02:07:38.844Z,13.40
2022-09-03T02:10:50.836Z,13.40
2022-09-03T02:13:48.707Z,13.40
2022-09-03T02:16:40.988Z,13.40
2022-09-03T02:19:34.653Z,13.40
2022-09-03T02:22:26.921Z,13.50
2022-09-03T02:25:19.192Z,13.50
2022-09-03T02:28:17.144Z,13.50
2022-09-03T02:31:10.337Z,13.50
2022-09-03T02:34:02.814Z,13.50
2022-09-03T02:36:55.589Z,13.40
2022-09-03T02:39:48.117Z,13.40
2022-09-03T02:42:40.459Z,13.30
2022-09-03T02:45:32.699Z,13.30
2022-09-03T02:48:25.511Z,13.30
2022-09-03T02:51:17.794Z,13.40
2022-09-03T02:54:11.129Z,13.40
2022-09-03T02:57:03.915Z,13.30
2022-09-03T02:59:56.112Z,13.30
2022-09-03T03:02:48.611Z,13.30
2022-09-03T03:05:47.806Z,13.30
2022-09-03T03:08:40.594Z,13.30
2022-09-03T03:11:33.244Z,13.20
2022-09-03T03:14:25.523Z,13.10
2022-09-03T03:17:17.768Z,13.10
2022-09-03T03:20:10.468Z,12.90
2022-09-03T03:23:04.088Z,12.90
2022-09-03T03:26:02.130Z,12.90
2022-09-03T03:28:59.213Z,13.00
2022-09-03T03:31:52.318Z,13.10
2022-09-03T03:34:44.521Z,13.00
2022-09-03T03:37:36.758Z,13.00
2022-09-03T03:40:29.023Z,13.00
2022-09-03T03:43:21.210Z,13.00
2022-09-03T03:46:15.090Z,12.90
2022-09-03T03:49:08.852Z,13.00
2022-09-03T03:52:03.188Z,12.90
2022-09-03T03:54:55.582Z,12.90
2022-09-03T03:57:47.843Z,12.90
2022-09-03T04:00:40.020Z,12.90
2022-09-03T04:03:32.271Z,13.00
2022-09-03T04:06:24.730Z,12.90
2022-09-03T04:09:16.947Z,13.00
2022-09-03T04:12:09.128Z,12.90
2022-09-03T04:15:01.305Z,12.90
2022-09-03T04:17:56.262Z,12.90
2022-09-03T04:20:48.437Z,12.90
2022-09-03T04:23:46.098Z,13.00
2022-09-03T04:26:38.525Z,12.90
2022-09-03T04:29:31.334Z,13.00
2022-09-03T04:32:42.060Z,13.30
2022-09-03T04:35:34.413Z,14.00
2022-09-03T04:38:31.931Z,14.50
2022-09-03T04:41:26.791Z,15.40
2022-09-03T04:44:18.970Z,16.60
2022-09-03T04:47:11.154Z,17.70
2022-09-03T04:50:05.493Z,18.80
2022-09-03T04:53:07.636Z,20.00
2022-09-03T04:56:00.582Z,21.20
2022-09-03T04:58:57.994Z,22.20
2022-09-03T05:01:52.695Z,22.80
2022-09-03T05:04:45.063Z,23.60
2022-09-03T05:07:38.809Z,24.00
2022-09-03T05:10:31.725Z,24.50
2022-09-03T05:13:23.934Z,25.00
2022-09-03T05:16:17.759Z,25.90
2022-09-03T05:19:10.785Z,26.80
2022-09-03T05:22:03.164Z,27.40
2022-09-03T05:24:56.321Z,27.40
2022-09-03T05:27:48.761Z,27.50
2022-09-03T05:30:40.945Z,27.40
2022-09-03T05:33:38.072Z,27.60
2022-09-03T05:36:35.626Z,28.00
2022-09-03T05:39:27.915Z,28.30
2022-09-03T05:42:21.958Z,27.80
2022-09-03T05:45:14.166Z,27.80
2022-09-03T05:48:06.333Z,27.80
2022-09-03T05:51:19.005Z,27.70
2022-09-03T05:54:11.299Z,27.70
2022-09-03T05:57:04.016Z,27.40
2022-09-03T05:59:56.546Z,26.80
2022-09-03T06:02:53.148Z,26.70
2022-09-03T06:05:53.268Z,26.40
2022-09-03T06:08:45.446Z,26.20
2022-09-03T06:11:39.486Z,25.70
2022-09-03T06:14:31.742Z,25.30
2022-09-03T06:17:24.051Z,24.90
2022-09-03T06:20:16.385Z,24.70
2022-09-03T06:23:08.560Z,24.20
2022-09-03T06:26:04.942Z,24.10
2022-09-03T06:28:58.092Z,23.80
2022-09-03T06:31:50.935Z,24.10
2022-09-03T06:34:43.233Z,24.40
2022-09-03T06:37:43.128Z,24.30
2022-09-03T06:40:35.402Z,24.70
2022-09-03T06:43:28.516Z,25.20
2022-09-03T06:46:23.229Z,25.60
2022-09-03T06:49:16.300Z,25.50
2022-09-03T06:52:08.566Z,25.50
2022-09-03T06:55:01.138Z,25.60
2022-09-03T06:57:57.099Z,25.90
2022-09-03T07:00:49.988Z,25.20
2022-09-03T07:03:44.305Z,24.70
2022-09-03T07:06:38.815Z,24.90
2022-09-03T07:09:32.381Z,24.70
2022-09-03T07:12:24.617Z,25.30
2022-09-03T07:15:17.440Z,25.70
2022-09-03T07:18:09.599Z,25.60
2022-09-03T07:21:13.809Z,25.70
2022-09-03T07:24:07.193Z,25.80
2022-09-03T07:26:59.369Z,25.50
2022-09-03T07:29:51.528Z,25.40
2022-09-03T07:32:43.706Z,25.40
2022-09-03T07:35:37.183Z,25.80
2022-09-03T07:38:29.390Z,26.00
2022-09-03T07:41:28.411Z,26.30
2022-09-03T07:44:21.481Z,26.40
2022-09-03T07:47:15.069Z,26.60
2022-09-03T07:50:12.085Z,27.20
2022-09-03T07:53:04.280Z,27.60
2022-09-03T07:56:05.314Z,27.90
2022-09-03T07:58:58.372Z,27.90
2022-09-03T08:01:51.049Z,28.00
2022-09-03T08:04:43.545Z,27.80
2022-09-03T08:07:35.697Z,27.10
2022-09-03T08:10:30.663Z,26.80
2022-09-03T08:13:22.864Z,26.30
2022-09-03T08:16:18.439Z,26.00
2022-09-03T08:19:13.358Z,25.50
2022-09-03T08:22:05.895Z,25.10
2022-09-03T08:24:58.144Z,25.60
2022-09-03T08:27:50.394Z,26.10
2022-09-03T08:30:42.590Z,26.20
2022-09-03T08:33:37.707Z,25.90
2022-09-03T08:36:31.392Z,25.60
2022-09-03T08:39:23.646Z,25.60
2022-09-03T08:42:44.441Z,25.60
2022-09-03T08:45:37.193Z,25.10
2022-09-03T08:48:30.001Z,24.80
2022-09-03T08:51:24.987Z,25.10
2022-09-03T08:54:19.629Z,25.70
2022-09-03T08:57:14.313Z,25.90
2022-09-03T09:00:07.060Z,26.20
2022-09-03T09:03:27.108Z,26.70
2022-09-03T09:06:37.423Z,26.80
2022-09-03T09:09:56.958Z,26.70
2022-09-03T09:13:17.396Z,26.80
2022-09-03T09:16:19.485Z,26.90
2022-09-03T09:19:44.750Z,26.90
2022-09-03T09:22:47.403Z,26.30
2022-09-03T09:25:51.211Z,25.50
2022-09-03T09:28:46.815Z,25.10
2022-09-03T09:31:45.315Z,24.80
2022-09-03T09:34:39.144Z,24.40
2022-09-03T09:37:31.435Z,24.40
2022-09-03T09:40:34.795Z,24.30
2022-09-03T09:43:26.967Z,24.30
2022-09-03T09:46:25.584Z,24.10
2022-09-03T09:49:37.023Z,24.20
2022-09-03T09:52:31.666Z,24.20
2022-09-03T09:55:23.970Z,24.60
2022-09-03T09:58:19.655Z,24.40
2022-09-03T10:01:18.746Z,24.30
2022-09-03T10:04:14.129Z,24.30
2022-09-03T10:07:32.095Z,24.00
2022-09-03T10:10:25.699Z,24.00
2022-09-03T10:13:36.233Z,24.10
2022-09-03T10:16:36.625Z,24.40
2022-09-03T10:19:43.593Z,24.50
2022-09-03T10:22:48.347Z,24.60
2022-09-03T10:26:11.372Z,24.90
2022-09-03T10:29:06.527Z,25.20
2022-09-03T10:31:58.676Z,25.70
2022-09-03T10:35:12.682Z,25.90
2022-09-03T10:38:17.485Z,26.30
2022-09-03T10:41:24.939Z,26.90
2022-09-03T10:44:42.816Z,27.30
2022-09-03T10:47:55.434Z,27.60
2022-09-03T10:50:48.740Z,27.80
2022-09-03T10:53:56.046Z,27.90
2022-09-03T10:57:02.920Z,27.60
2022-09-03T11:00:12.846Z,27.50
2022-09-03T11:03:45.049Z,27.30
2022-09-03T11:07:02.326Z,26.70
2022-09-03T11:10:21.755Z,26.60
2022-09-03T11:13:22.354Z,26.50
2022-09-03T11:16:21.655Z,26.20
2022-09-03T11:19:20.687Z,25.90
2022-09-03T11:22:17.570Z,25.70
2022-09-03T11:25:15.858Z,25.50
2022-09-03T11:28:33.648Z,25.50
2022-09-03T11:31:52.952Z,25.90
2022-09-03T11:34:54.577Z,26.00
2022-09-03T11:38:15.206Z,25.60
2022-09-03T11:41:15.343Z,25.50
2022-09-03T11:44:19.939Z,25.40
2022-09-03T11:47:21.695Z,25.40
2022-09-03T11:50:29.296Z,25.10
2022-09-03T11:53:30.173Z,25.00
2022-09-03T11:56:23.029Z,25.10
2022-09-03T11:59:24.419Z,25.00
2022-09-03T12:02:23.604Z,25.00
2022-09-03T12:05:35.143Z,24.90
2022-09-03T12:08:51.850Z,25.00
2022-09-03T12:12:00.604Z,24.70
2022-09-03T12:15:07.437Z,24.50
2022-09-03T12:18:20.113Z,24.40
2022-09-03T12:21:12.776Z,24.20
2022-09-03T12:24:05.086Z,24.00
2022-09-03T12:27:00.790Z,24.00
2022-09-03T12:30:02.107Z,24.20
2022-09-03T12:33:05.590Z,24.50
2022-09-03T12:36:00.124Z,24.70
2022-09-03T12:39:11.794Z,24.90
2022-09-03T12:42:07.266Z,25.10
2022-09-03T12:45:15.793Z,25.20
2022-09-03T12:48:16.357Z,25.20
2022-09-03T12:54:21.386Z,25.60
2022-09-03T12:57:19.980Z,25.80
2022-09-03T13:00:16.406Z,26.00
2022-09-03T13:03:23.175Z,26.20
2022-09-03T13:06:20.333Z,26.30
2022-09-03T13:09:14.416Z,26.30
2022-09-03T13:12:07.890Z,26.30
2022-09-03T13:15:07.822Z,26.10
2022-09-03T13:18:25.068Z,26.00
2022-09-03T13:21:54.701Z,25.90
2022-09-03T13:24:47.026Z,25.70
2022-09-03T13:28:02.519Z,25.40
2022-09-03T13:30:57.897Z,25.30
2022-09-03T13:34:05.226Z,25.10
2022-09-03T13:37:28.050Z,25.20
2022-09-03T13:40:48.591Z,25.40
2022-09-03T13:43:53.765Z,25.50
2022-09-03T13:46:52.074Z,25.50
2022-09-03T13:50:10.590Z,25.40
2022-09-03T13:53:14.873Z,25.30
2022-09-03T13:56:19.377Z,25.30
2022-09-03T13:59:46.967Z,25.10
2022-09-03T14:03:05.384Z,25.10
2022-09-03T14:06:20.731Z,25.10
2022-09-03T14:09:34.893Z,25.20
2022-09-03T14:12:42.502Z,25.30
2022-09-03T14:15:48.611Z,25.30
2022-09-03T14:18:50.872Z,25.30
2022-09-03T14:21:47.690Z,25.10
2022-09-03T14:24:57.983Z,24.90
2022-09-03T14:27:50.320Z,24.80
2022-09-03T14:30:59.125Z,24.80
2022-09-03T14:34:00.616Z,24.80
2022-09-03T14:37:30.348Z,24.90
2022-09-03T14:40:40.158Z,24.90
2022-09-03T14:43:51.155Z,24.90
2022-09-03T14:47:04.641Z,24.90
2022-09-03T14:50:12.914Z,24.90
2022-09-03T14:53:38.644Z,25.00
2022-09-03T14:56:39.638Z,25.10
2022-09-03T14:59:50.274Z,25.20
2022-09-03T15:03:13.057Z,25.10
2022-09-03T15:06:30.797Z,25.00
2022-09-03T15:09:34.108Z,24.90
2022-09-03T15:12:40.558Z,24.70
2022-09-03T15:15:42.758Z,24.80
2022-09-03T15:18:58.651Z,24.80
2022-09-03T15:22:09.711Z,24.80
2022-09-03T15:25:16.852Z,24.80
2022-09-03T15:28:34.406Z,24.90
2022-09-03T15:31:41.441Z,24.90
2022-09-03T15:34:48.386Z,24.80
2022-09-03T15:37:59.482Z,24.40
2022-09-03T15:40:55.489Z,24.30
2022-09-03T15:43:51.214Z,24.10
2022-09-03T15:47:14.247Z,23.90
2022-09-03T15:50:09.523Z,24.00
2022-09-03T15:53:26.057Z,24.00
2022-09-03T15:56:24.738Z,24.10
2022-09-03T15:59:31.686Z,24.20
2022-09-03T16:02:40.014Z,24.20
2022-09-03T16:05:50.977Z,24.20
2022-09-03T16:09:09.178Z,24.20
2022-09-03T16:12:13.287Z,24.10
2022-09-03T16:15:36.475Z,24.00
2022-09-03T16:18:37.002Z,24.00
2022-09-03T16:21:32.904Z,24.00
2022-09-03T16:24:30.472Z,24.00
2022-09-03T16:27:33.656Z,23.90
2022-09-03T16:30:44.739Z,23.70
2022-09-03T16:33:58.074Z,23.50
2022-09-03T16:37:02.535Z,23.20
2022-09-03T16:40:16.495Z,23.10
2022-09-03T16:43:40.221Z,23.10
2022-09-03T16:46:51.657Z,23.00
2022-09-03T16:49:49.860Z,22.90
2022-09-03T16:53:10.307Z,22.80
2022-09-03T16:56:14.234Z,22.80
2022-09-03T16:59:18.682Z,22.70
2022-09-03T17:02:44.427Z,22.60
2022-09-03T17:05:39.864Z,22.50
2022-09-03T17:08:38.709Z,22.30
2022-09-03T17:11:49.399Z,22.20
2022-09-03T17:14:44.572Z,22.10
2022-09-03T17:18:04.141Z,22.00
2022-09-03T17:21:10.630Z,21.80
2022-09-03T17:24:05.672Z,21.70
2022-09-03T17:27:47.594Z,21.50
2022-09-03T17:30:57.220Z,21.40
2022-09-03T17:34:03.323Z,21.30
2022-09-03T17:37:33.297Z,21.20
2022-09-03T17:40:40.329Z,21.10
2022-09-03T17:43:47.469Z,21.10
2022-09-03T17:47:00.402Z,21.00
2022-09-03T17:49:54.466Z,20.90
2022-09-03T17:53:03.145Z,20.80
2022-09-03T17:56:00.750Z,20.70
2022-09-03T17:59:24.172Z,20.60
2022-09-03T18:02:34.648Z,20.50
2022-09-03T18:05:43.455Z,20.40
2022-09-03T18:09:05.860Z,20.40
2022-09-03T18:12:18.455Z,20.30
2022-09-03T18:15:25.945Z,20.20
2022-09-03T18:18:32.440Z,20.20
2022-09-03T18:21:47.168Z,20.20
2022-09-03T18:25:10.502Z,20.10
2022-09-03T18:28:31.199Z,20.20
2022-09-03T18:31:42.223Z,20.00
2022-09-03T18:34:55.072Z,20.00
2022-09-03T18:38:05.938Z,20.00
2022-09-03T18:41:39.319Z,19.90
2022-09-03T18:45:20.978Z,19.80
2022-09-03T18:48:40.170Z,19.70
2022-09-03T18:52:13.091Z,19.60
2022-09-03T18:55:34.221Z,19.50
2022-09-03T18:58:59.264Z,19.40
2022-09-03T19:02:12.290Z,19.40
2022-09-03T19:05:37.523Z,19.20
2022-09-03T19:08:57.358Z,19.10
2022-09-03T19:12:24.145Z,19.10
2022-09-03T19:15:48.524Z,19.00
2022-09-03T19:19:20.686Z,18.90
2022-09-03T19:22:35.592Z,18.90
2022-09-03T19:25:48.616Z,18.80
2022-09-03T19:29:04.263Z,18.80
2022-09-03T19:32:22.489Z,18.90
2022-09-03T19:35:39.174Z,18.80
2022-09-03T19:39:21.295Z,18.60
2022-09-03T19:42:47.958Z,18.60
2022-09-03T19:46:09.386Z,18.60
2022-09-03T19:49:45.012Z,18.50
2022-09-03T19:53:21.879Z,18.60
2022-09-03T19:56:46.980Z,18.50
2022-09-03T19:59:59.145Z,18.50
2022-09-03T20:03:09.862Z,18.40
2022-09-03T20:06:23.438Z,18.40
2022-09-03T20:09:37.364Z,18.30
2022-09-03T20:12:35.624Z,18.20
2022-09-03T20:15:42.070Z,18.10
2022-09-03T20:19:09.004Z,18.00
2022-09-03T20:22:12.503Z,18.00
2022-09-03T20:25:34.629Z,18.00
2022-09-03T20:28:49.439Z,18.10
2022-09-03T20:31:59.990Z,18.00
2022-09-03T20:35:02.723Z,18.00
2022-09-03T20:38:16.665Z,17.90
2022-09-03T20:41:34.790Z,17.90
2022-09-03T20:44:35.771Z,17.80
2022-09-03T20:47:39.211Z,17.80
2022-09-03T20:50:46.770Z,17.90
2022-09-03T20:54:13.868Z,17.80
2022-09-03T20:57:25.127Z,17.80
2022-09-03T21:00:19.647Z,17.70
2022-09-03T21:03:44.523Z,17.60
2022-09-03T21:06:59.069Z,17.60
2022-09-03T21:10:08.262Z,17.60
2022-09-03T21:13:03.419Z,17.50
2022-09-03T21:16:05.025Z,17.40
2022-09-03T21:19:09.572Z,17.30
2022-09-03T21:22:07.233Z,17.20
2022-09-03T21:25:04.881Z,17.20
2022-09-03T21:28:12.753Z,17.10
2022-09-03T21:31:28.922Z,17.00
2022-09-03T21:34:30.083Z,17.00
2022-09-03T21:37:23.994Z,17.00
2022-09-03T21:40:24.417Z,17.00
2022-09-03T21:43:32.973Z,17.00
2022-09-03T21:46:31.191Z,17.00
2022-09-03T21:49:36.983Z,17.00
2022-09-03T21:52:42.323Z,17.10
2022-09-03T21:55:49.442Z,17.00
2022-09-03T21:59:08.682Z,17.00
2022-09-03T22:02:21.671Z,17.00
2022-09-03T22:05:15.281Z,16.90
2022-09-03T22:08:22.888Z,16.90
2022-09-03T22:11:34.795Z,16.80
2022-09-03T22:14:32.898Z,16.90
2022-09-03T22:17:47.061Z,16.80
2022-09-03T22:20:39.568Z,16.90
2022-09-03T22:23:43.804Z,16.90
2022-09-03T22:26:45.264Z,16.90
2022-09-03T22:29:45.076Z,16.90
2022-09-03T22:33:15.462Z,16.80
2022-09-03T22:36:18.193Z,16.80
2022-09-03T22:39:33.950Z,16.90
2022-09-03T22:42:43.450Z,16.90
2022-09-03T22:45:44.457Z,16.80
2022-09-03T22:49:01.661Z,16.90
2022-09-03T22:52:13.234Z,16.80
2022-09-03T22:55:13.770Z,16.80
2022-09-03T22:58:10.301Z,16.70
2022-09-03T23:01:21.174Z,16.70
2022-09-03T23:04:13.252Z,16.70
2022-09-03T23:07:22.324Z,16.70
2022-09-03T23:10:25.861Z,16.80
2022-09-03T23:13:22.502Z,16.70
2022-09-03T23:16:34.175Z,16.80
2022-09-03T23:19:41.185Z,16.70
2022-09-03T23:22:42.136Z,16.50
2022-09-03T23:25:41.157Z,16.60
2022-09-03T23:28:36.763Z,16.50
2022-09-03T23:31:29.083Z,16.40
2022-09-03T23:34:21.504Z,16.40
2022-09-03T23:37:33.878Z,16.40
2022-09-03T23:40:48.719Z,16.40
2022-09-03T23:43:58.305Z,16.40
2022-09-03T23:47:13.527Z,16.30
2022-09-03T23:50:31.054Z,16.20
2022-09-03T23:53:40.001Z,16.20
2022-09-03T23:56:41.394Z,16.20
